Time;durP1;ratioP1;P1;durP2;ratioP2;P2;SDS_P1;SDS_P2;PMS_P1;PMS_P2;Temp;Humidity;BMP_temperature;BMP_pressure;BME280_temperature;BME280_humidity;BME280_pressure;Samples;Min_cycle;Max_cycle;Signal;HPM_P1;HPM_P2
2023/09/08 00:02:17;;;;;;;9.30;4.57;;;;;;;;;;5009900;28;20506;-69
2023/09/08 00:04:43;;;;;;;12.55;4.80;;;;;;;;;;5009525;28;20025;-69
2023/09/08 00:07:08;;;;;;;10.05;4.63;;;;;;;;;;5004661;28;20029;-68
2023/09/08 00:09:33;;;;;;;10.57;5.28;;;;;;;;;;4999592;28;20025;-69
2023/09/08 00:11:59;;;;;;;11.27;5.20;;;;;;;;;;5009562;28;20018;-69
2023/09/08 00:14:24;;;;;;;11.73;5.32;;;;;;;;;;5009747;28;20048;-69
2023/09/08 00:16:54;;;;;;;10.55;5.05;;;;;;;;;;5009213;28;20014;-69
2023/09/08 00:19:19;;;;;;;10.77;5.00;;;;;;;;;;5009514;28;20029;-68
2023/09/08 00:21:44;;;;;;;10.18;5.65;;;;;;;;;;5009535;28;20018;-69
2023/09/08 00:24:10;;;;;;;10.73;5.40;;;;;;;;;;5009434;28;20422;-67
2023/09/08 00:26:36;;;;;;;10.40;4.82;;;;;;;;;;4996871;28;20026;-69
2023/09/08 00:29:01;;;;;;;10.02;5.38;;;;;;;;;;5003523;28;20356;-68
2023/09/08 00:31:26;;;;;;;11.30;5.23;;;;;;;;;;5018395;28;20029;-68
2023/09/08 00:33:51;;;;;;;12.85;5.55;;;;;;;;;;5008457;28;20330;-69
2023/09/08 00:36:18;;;;;;;14.15;5.38;;;;;;;;;;5008032;28;20498;-68
2023/09/08 00:38:43;;;;;;;10.65;5.20;;;;;;;;;;5009092;28;20037;-68
2023/09/08 00:41:08;;;;;;;14.75;5.03;;;;;;;;;;5030710;22;20037;-73
2023/09/08 00:43:33;;;;;;;9.75;5.78;;;;;;;;;;5024684;28;20067;-73
2023/09/08 00:46:00;;;;;;;11.65;5.50;;;;;;;;;;5026007;28;20072;-73
2023/09/08 00:48:25;;;;;;;15.70;4.75;;;;;;;;;;5025481;28;20032;-71
2023/09/08 00:50:51;;;;;;;10.05;5.55;;;;;;;;;;5026923;28;20026;-73
2023/09/08 00:53:17;;;;;;;15.95;5.60;;;;;;;;;;5027578;28;20410;-70
2023/09/08 00:55:42;;;;;;;11.07;5.50;;;;;;;;;;5030597;28;20020;-73
2023/09/08 00:58:07;;;;;;;9.63;4.72;;;;;;;;;;5030087;28;20079;-72
2023/09/08 01:00:32;;;;;;;10.43;5.40;;;;;;;;;;5029247;28;20051;-70
2023/09/08 01:02:58;;;;;;;12.40;5.43;;;;;;;;;;5028639;28;20021;-73
2023/09/08 01:05:23;;;;;;;12.88;5.00;;;;;;;;;;5029448;28;20021;-74
2023/09/08 01:07:48;;;;;;;18.08;5.43;;;;;;;;;;5028367;28;20025;-72
2023/09/08 01:10:14;;;;;;;10.98;5.40;;;;;;;;;;5018293;28;20311;-75
2023/09/08 01:12:39;;;;;;;11.50;5.57;;;;;;;;;;5026908;28;20018;-73
2023/09/08 01:15:05;;;;;;;9.60;4.90;;;;;;;;;;5029624;28;20079;-72
2023/09/08 01:17:31;;;;;;;11.68;5.13;;;;;;;;;;5028229;28;20258;-72
2023/09/08 01:19:58;;;;;;;13.43;6.13;;;;;;;;;;5029412;28;20022;-73
2023/09/08 01:22:35;;;;;;;9.98;5.40;;;;;;;;;;5029454;28;20489;-73
2023/09/08 01:25:13;;;;;;;13.32;5.07;;;;;;;;;;5029219;28;20035;-73
2023/09/08 01:27:40;;;;;;;12.55;5.53;;;;;;;;;;5027662;28;20428;-71
2023/09/08 01:30:06;;;;;;;25.65;5.20;;;;;;;;;;5023007;28;20029;-73
2023/09/08 01:32:32;;;;;;;13.85;6.03;;;;;;;;;;5028575;28;20025;-73
2023/09/08 01:34:58;;;;;;;19.20;4.85;;;;;;;;;;5030299;28;20013;-73
2023/09/08 01:37:23;;;;;;;13.98;5.85;;;;;;;;;;5028734;28;20029;-74
2023/09/08 01:39:49;;;;;;;10.45;5.13;;;;;;;;;;5030073;28;20025;-74
2023/09/08 01:42:14;;;;;;;10.55;5.25;;;;;;;;;;5029596;28;20072;-73
2023/09/08 01:44:39;;;;;;;9.80;4.93;;;;;;;;;;5028700;28;20013;-74
2023/09/08 01:47:04;;;;;;;11.63;4.85;;;;;;;;;;5029026;28;20025;-74
2023/09/08 01:49:30;;;;;;;10.00;5.72;;;;;;;;;;5029409;28;20018;-72
2023/09/08 01:51:56;;;;;;;9.60;5.05;;;;;;;;;;5029424;28;20092;-73
2023/09/08 01:54:21;;;;;;;9.52;5.28;;;;;;;;;;5029594;28;20029;-72
2023/09/08 01:56:46;;;;;;;10.00;4.47;;;;;;;;;;5029189;28;20013;-73
2023/09/08 01:59:11;;;;;;;12.85;4.85;;;;;;;;;;5028108;28;20070;-74
2023/09/08 02:01:36;;;;;;;18.02;5.38;;;;;;;;;;5028895;28;20120;-70
2023/09/08 02:04:02;;;;;;;14.27;5.07;;;;;;;;;;5029039;28;20475;-73
2023/09/08 02:06:27;;;;;;;11.05;5.47;;;;;;;;;;5027542;28;20927;-70
2023/09/08 02:08:52;;;;;;;11.82;5.18;;;;;;;;;;5024418;28;20029;-73
2023/09/08 02:11:17;;;;;;;8.52;4.75;;;;;;;;;;5023373;28;20014;-72
2023/09/08 02:13:43;;;;;;;12.57;4.90;;;;;;;;;;5029072;28;20100;-73
2023/09/08 02:16:12;;;;;;;9.75;5.07;;;;;;;;;;5028691;28;20486;-73
2023/09/08 02:18:37;;;;;;;12.57;4.75;;;;;;;;;;5028552;28;20550;-73
2023/09/08 02:21:03;;;;;;;9.57;4.67;;;;;;;;;;5028600;28;20100;-73
2023/09/08 02:23:28;;;;;;;10.02;4.95;;;;;;;;;;5028742;28;20254;-71
2023/09/08 02:25:53;;;;;;;10.88;5.10;;;;;;;;;;5027858;28;20033;-73
2023/09/08 02:28:18;;;;;;;16.00;6.35;;;;;;;;;;5026419;28;20017;-72
2023/09/08 02:30:43;;;;;;;11.02;4.97;;;;;;;;;;5024238;28;20442;-73
2023/09/08 02:33:09;;;;;;;12.20;5.22;;;;;;;;;;5028446;28;20454;-74
2023/09/08 02:35:40;;;;;;;11.27;5.47;;;;;;;;;;5028537;28;20447;-73
2023/09/08 02:38:05;;;;;;;11.77;4.97;;;;;;;;;;5028639;28;20114;-73
2023/09/08 02:40:33;;;;;;;8.98;4.93;;;;;;;;;;5026801;28;20033;-74
2023/09/08 02:42:59;;;;;;;14.50;5.43;;;;;;;;;;5028628;28;20048;-74
2023/09/08 02:45:24;;;;;;;15.93;5.25;;;;;;;;;;5028311;28;20474;-74
2023/09/08 02:47:49;;;;;;;11.25;5.10;;;;;;;;;;5027803;28;20021;-71
2023/09/08 02:50:14;;;;;;;8.65;4.82;;;;;;;;;;5028694;28;20087;-74
2023/09/08 02:52:40;;;;;;;15.52;5.40;;;;;;;;;;5030280;28;20243;-71
2023/09/08 02:55:05;;;;;;;10.50;5.47;;;;;;;;;;5028148;28;20499;-73
2023/09/08 02:57:30;;;;;;;17.67;5.38;;;;;;;;;;5027104;28;20289;-72
2023/09/08 02:59:56;;;;;;;12.02;5.22;;;;;;;;;;5028432;28;20021;-72
2023/09/08 03:02:22;;;;;;;10.43;5.22;;;;;;;;;;5028134;28;20379;-73
2023/09/08 03:04:47;;;;;;;12.32;4.68;;;;;;;;;;5028523;28;20030;-72
2023/09/08 03:07:12;;;;;;;13.95;5.10;;;;;;;;;;5022738;28;20108;-74
2023/09/08 03:09:37;;;;;;;14.63;5.60;;;;;;;;;;5013256;28;20394;-73
2023/09/08 03:12:03;;;;;;;11.90;5.00;;;;;;;;;;5016351;28;20411;-73
2023/09/08 03:14:28;;;;;;;14.50;5.13;;;;;;;;;;5025519;28;20037;-71
2023/09/08 03:16:53;;;;;;;12.80;5.40;;;;;;;;;;5025963;28;20026;-74
2023/09/08 03:19:19;;;;;;;10.82;5.57;;;;;;;;;;5027840;28;20029;-72
2023/09/08 03:21:44;;;;;;;10.35;5.53;;;;;;;;;;5028096;28;20022;-73
2023/09/08 03:24:09;;;;;;;18.60;6.55;;;;;;;;;;5027920;28;20013;-72
2023/09/08 03:26:34;;;;;;;13.25;5.22;;;;;;;;;;5027974;28;20020;-71
2023/09/08 03:28:59;;;;;;;10.80;5.45;;;;;;;;;;5027420;28;20201;-73
2023/09/08 03:31:25;;;;;;;11.50;5.55;;;;;;;;;;5023563;28;20049;-69
2023/09/08 03:33:50;;;;;;;11.02;5.38;;;;;;;;;;5027681;28;20055;-72
2023/09/08 03:36:16;;;;;;;14.15;5.53;;;;;;;;;;5027845;28;20104;-72
2023/09/08 03:38:41;;;;;;;12.93;4.90;;;;;;;;;;5027616;28;20115;-73
2023/09/08 03:41:07;;;;;;;11.57;6.40;;;;;;;;;;5028492;28;20082;-70
2023/09/08 03:43:32;;;;;;;10.98;5.07;;;;;;;;;;5027724;28;20430;-73
2023/09/08 03:45:57;;;;;;;13.88;5.32;;;;;;;;;;5027628;28;20029;-72
2023/09/08 03:48:22;;;;;;;9.43;5.55;;;;;;;;;;5025355;28;20061;-72
2023/09/08 03:50:48;;;;;;;10.15;5.80;;;;;;;;;;5026187;28;20018;-71
2023/09/08 03:53:13;;;;;;;12.75;5.38;;;;;;;;;;5027154;28;20029;-70
2023/09/08 03:55:38;;;;;;;13.70;5.88;;;;;;;;;;5028052;28;20481;-72
2023/09/08 03:58:03;;;;;;;9.02;5.00;;;;;;;;;;5027099;28;20445;-70
2023/09/08 04:00:29;;;;;;;11.43;5.82;;;;;;;;;;5026956;28;20083;-72
2023/09/08 04:02:54;;;;;;;15.27;6.28;;;;;;;;;;5027465;28;20025;-72
2023/09/08 04:05:19;;;;;;;14.07;5.68;;;;;;;;;;5026647;28;20028;-73
2023/09/08 04:07:45;;;;;;;15.60;5.50;;;;;;;;;;5017864;28;20054;-72
2023/09/08 04:10:10;;;;;;;12.30;5.85;;;;;;;;;;5017053;28;20459;-73
2023/09/08 04:12:35;;;;;;;11.93;5.47;;;;;;;;;;5026354;28;20511;-70
2023/09/08 04:15:01;;;;;;;14.57;5.57;;;;;;;;;;5026523;28;20048;-73
2023/09/08 04:17:26;;;;;;;10.80;5.50;;;;;;;;;;5025972;28;20087;-73
2023/09/08 04:19:51;;;;;;;10.90;5.63;;;;;;;;;;5027882;28;20037;-72
2023/09/08 04:22:16;;;;;;;14.65;5.75;;;;;;;;;;5027133;28;20022;-72
2023/09/08 04:24:42;;;;;;;11.77;5.22;;;;;;;;;;5026515;28;20132;-73
2023/09/08 04:27:08;;;;;;;11.70;5.63;;;;;;;;;;5027418;28;20022;-72
2023/09/08 04:29:34;;;;;;;15.00;6.72;;;;;;;;;;5019878;28;20064;-74
2023/09/08 04:31:59;;;;;;;9.57;5.30;;;;;;;;;;5024573;28;20017;-74
2023/09/08 04:34:24;;;;;;;9.70;5.55;;;;;;;;;;5031588;28;20343;-74
2023/09/08 04:36:50;;;;;;;14.32;4.97;;;;;;;;;;5031299;28;20439;-71
2023/09/08 04:39:15;;;;;;;11.35;6.10;;;;;;;;;;5031215;28;20391;-73
2023/09/08 04:41:40;;;;;;;14.02;5.35;;;;;;;;;;5031265;28;20513;-71
2023/09/08 04:44:06;;;;;;;11.93;5.30;;;;;;;;;;5031854;28;20025;-71
2023/09/08 04:46:31;;;;;;;13.35;5.43;;;;;;;;;;5029528;28;20021;-69
2023/09/08 04:48:56;;;;;;;11.82;5.50;;;;;;;;;;5030550;28;20108;-70
2023/09/08 04:51:21;;;;;;;14.32;5.32;;;;;;;;;;5030006;28;20151;-73
2023/09/08 04:53:47;;;;;;;10.93;6.10;;;;;;;;;;5030540;28;20470;-73
2023/09/08 04:56:13;;;;;;;14.65;6.40;;;;;;;;;;5025357;28;20411;-73
2023/09/08 04:58:38;;;;;;;19.80;5.65;;;;;;;;;;5029782;28;20021;-70
2023/09/08 05:01:03;;;;;;;12.13;5.65;;;;;;;;;;5030268;28;20429;-72
2023/09/08 05:03:30;;;;;;;14.30;5.97;;;;;;;;;;5030369;28;20104;-72
2023/09/08 05:05:55;;;;;;;13.13;5.47;;;;;;;;;;5030486;28;20021;-71
2023/09/08 05:08:21;;;;;;;13.82;5.18;;;;;;;;;;5029776;28;20108;-73
2023/09/08 05:10:46;;;;;;;12.18;5.40;;;;;;;;;;5024281;28;20362;-70
2023/09/08 05:13:11;;;;;;;19.20;7.75;;;;;;;;;;5030418;28;20094;-71
2023/09/08 05:15:37;;;;;;;11.07;6.10;;;;;;;;;;5029034;28;20017;-73
2023/09/08 05:18:02;;;;;;;13.98;5.82;;;;;;;;;;5023447;28;20033;-71
2023/09/08 05:20:28;;;;;;;11.73;5.95;;;;;;;;;;5029605;28;20077;-71
2023/09/08 05:22:53;;;;;;;13.18;5.78;;;;;;;;;;5030566;28;20031;-72
2023/09/08 05:25:18;;;;;;;15.18;7.72;;;;;;;;;;5030012;28;20021;-70
2023/09/08 05:27:45;;;;;;;14.85;6.53;;;;;;;;;;5029716;28;20244;-74
2023/09/08 05:30:11;;;;;;;14.73;6.20;;;;;;;;;;5028775;28;20412;-72
2023/09/08 05:32:36;;;;;;;17.75;6.32;;;;;;;;;;5030365;28;20025;-74
2023/09/08 05:35:02;;;;;;;10.57;6.32;;;;;;;;;;5030312;28;20092;-73
2023/09/08 05:37:27;;;;;;;11.75;6.00;;;;;;;;;;5025535;28;20108;-74
2023/09/08 05:39:53;;;;;;;13.57;6.20;;;;;;;;;;5015764;28;20120;-72
2023/09/08 05:42:18;;;;;;;12.90;5.68;;;;;;;;;;5031194;28;20040;-74
2023/09/08 05:44:45;;;;;;;20.52;6.88;;;;;;;;;;5029405;28;20108;-73
2023/09/08 05:47:10;;;;;;;12.30;5.70;;;;;;;;;;5028066;28;20029;-74
2023/09/08 05:49:35;;;;;;;14.15;6.75;;;;;;;;;;5029893;28;20085;-73
2023/09/08 05:52:00;;;;;;;11.57;6.00;;;;;;;;;;5030336;28;20088;-72
2023/09/08 05:54:26;;;;;;;13.95;5.75;;;;;;;;;;5029942;28;20035;-72
2023/09/08 05:56:51;;;;;;;14.45;5.85;;;;;;;;;;5029596;28;20359;-71
2023/09/08 05:59:16;;;;;;;12.50;6.38;;;;;;;;;;5029743;28;20478;-73
2023/09/08 06:01:41;;;;;;;11.20;6.15;;;;;;;;;;5029960;28;20033;-73
2023/09/08 06:04:07;;;;;;;14.27;7.05;;;;;;;;;;5031089;28;20036;-72
2023/09/08 06:06:32;;;;;;;18.35;5.82;;;;;;;;;;5030172;28;20022;-73
2023/09/08 06:08:57;;;;;;;12.77;5.85;;;;;;;;;;5029505;28;20489;-73
2023/09/08 06:11:22;;;;;;;16.45;7.13;;;;;;;;;;5027916;28;20463;-72
2023/09/08 06:13:48;;;;;;;12.85;6.32;;;;;;;;;;5031053;28;20045;-73
2023/09/08 06:16:13;;;;;;;12.63;5.53;;;;;;;;;;5029223;28;20022;-72
2023/09/08 06:18:41;;;;;;;13.50;6.43;;;;;;;;;;5028001;28;20032;-71
2023/09/08 06:21:07;;;;;;;17.48;7.50;;;;;;;;;;5028717;28;20072;-74
2023/09/08 06:23:33;;;;;;;13.45;6.85;;;;;;;;;;5029202;28;20053;-74
2023/09/08 06:26:01;;;;;;;12.43;6.10;;;;;;;;;;5029020;28;20414;-72
2023/09/08 06:28:27;;;;;;;12.60;6.03;;;;;;;;;;5028589;28;20075;-73
2023/09/08 06:30:52;;;;;;;13.52;6.13;;;;;;;;;;5028267;28;20554;-75
2023/09/08 06:33:18;;;;;;;19.45;7.45;;;;;;;;;;5028499;28;20113;-74
2023/09/08 06:35:44;;;;;;;12.88;6.53;;;;;;;;;;5029160;28;20472;-73
2023/09/08 06:38:09;;;;;;;17.13;6.38;;;;;;;;;;5021525;28;20430;-73
2023/09/08 06:40:34;;;;;;;11.75;5.65;;;;;;;;;;5034808;22;21316;-70
2023/09/08 06:42:59;;;;;;;11.13;5.63;;;;;;;;;;5050391;28;20183;-67
2023/09/08 06:45:25;;;;;;;16.35;6.78;;;;;;;;;;5050679;28;20184;-67
2023/09/08 06:47:54;;;;;;;15.63;7.47;;;;;;;;;;5050080;28;20032;-67
2023/09/08 06:50:19;;;;;;;13.63;6.03;;;;;;;;;;5051271;28;20044;-67
2023/09/08 06:52:45;;;;;;;13.32;7.22;;;;;;;;;;5051594;28;20032;-68
2023/09/08 06:55:10;;;;;;;16.88;7.13;;;;;;;;;;5052315;28;20012;-66
2023/09/08 06:57:35;;;;;;;14.95;6.75;;;;;;;;;;5052141;28;20238;-67
2023/09/08 07:00:00;;;;;;;15.63;6.10;;;;;;;;;;5050763;28;20025;-68
2023/09/08 07:02:26;;;;;;;11.57;5.72;;;;;;;;;;5052957;28;20624;-68
2023/09/08 07:04:51;;;;;;;18.13;6.93;;;;;;;;;;5046820;28;20482;-66
2023/09/08 07:07:18;;;;;;;17.23;7.13;;;;;;;;;;5043509;28;20399;-64
2023/09/08 07:09:43;;;;;;;17.38;6.28;;;;;;;;;;5051364;28;20496;-67
2023/09/08 07:12:08;;;;;;;15.82;6.70;;;;;;;;;;5050284;28;20132;-65
2023/09/08 07:14:34;;;;;;;12.43;7.05;;;;;;;;;;5050549;28;20019;-67
2023/09/08 07:16:59;;;;;;;16.77;7.68;;;;;;;;;;5049886;28;20470;-67
2023/09/08 07:19:25;;;;;;;16.02;6.20;;;;;;;;;;5049920;28;20024;-67
2023/09/08 07:21:50;;;;;;;14.77;6.50;;;;;;;;;;5050048;28;20470;-67
2023/09/08 07:24:16;;;;;;;12.65;6.15;;;;;;;;;;5049668;28;20036;-67
2023/09/08 07:26:41;;;;;;;23.85;8.20;;;;;;;;;;5050027;28;20044;-67
2023/09/08 07:29:07;;;;;;;15.88;6.43;;;;;;;;;;5044588;28;20014;-67
2023/09/08 07:31:33;;;;;;;21.92;6.68;;;;;;;;;;5046043;28;20024;-68
2023/09/08 07:33:58;;;;;;;12.63;6.07;;;;;;;;;;5050040;28;20017;-67
2023/09/08 07:36:23;;;;;;;18.88;6.57;;;;;;;;;;5049919;28;20140;-66
2023/09/08 07:38:48;;;;;;;11.38;5.80;;;;;;;;;;5042218;28;20017;-67
2023/09/08 07:41:14;;;;;;;17.55;6.70;;;;;;;;;;5043258;28;20032;-68
2023/09/08 07:43:40;;;;;;;13.82;6.75;;;;;;;;;;5049484;28;20047;-68
2023/09/08 07:46:06;;;;;;;11.80;6.07;;;;;;;;;;5049898;28;20039;-65
2023/09/08 07:48:31;;;;;;;13.35;6.25;;;;;;;;;;5050038;28;20493;-68
2023/09/08 07:50:58;;;;;;;16.85;7.10;;;;;;;;;;5050188;28;20024;-68
2023/09/08 07:53:23;;;;;;;11.48;7.03;;;;;;;;;;5049517;28;20529;-67
2023/09/08 07:55:49;;;;;;;13.15;5.97;;;;;;;;;;5049907;28;20017;-66
2023/09/08 07:58:14;;;;;;;12.80;6.20;;;;;;;;;;5049143;28;20103;-67
2023/09/08 08:00:39;;;;;;;13.32;5.53;;;;;;;;;;5049717;28;20013;-67
2023/09/08 08:03:06;;;;;;;14.30;6.35;;;;;;;;;;5049418;28;20041;-68
2023/09/08 08:05:31;;;;;;;14.52;6.15;;;;;;;;;;5053912;28;20032;-67
2023/09/08 08:07:56;;;;;;;13.63;5.80;;;;;;;;;;5053272;28;20025;-66
2023/09/08 08:10:21;;;;;;;12.35;5.43;;;;;;;;;;5053752;28;20017;-68
2023/09/08 08:12:47;;;;;;;10.70;5.88;;;;;;;;;;5053818;28;20267;-65
2023/09/08 08:15:12;;;;;;;13.18;6.00;;;;;;;;;;5053393;28;20466;-67
2023/09/08 08:17:38;;;;;;;11.18;5.55;;;;;;;;;;5053570;28;20021;-66
2023/09/08 08:20:08;;;;;;;9.68;5.32;;;;;;;;;;5053932;28;20031;-68
2023/09/08 08:22:34;;;;;;;12.05;6.22;;;;;;;;;;5048897;28;20029;-66
2023/09/08 08:24:59;;;;;;;9.60;5.40;;;;;;;;;;5043973;28;20024;-65
2023/09/08 08:27:24;;;;;;;23.33;6.13;;;;;;;;;;5052367;28;20020;-67
2023/09/08 08:29:50;;;;;;;13.02;5.90;;;;;;;;;;5050690;28;20559;-65
2023/09/08 08:32:16;;;;;;;9.38;4.95;;;;;;;;;;5034682;28;20013;-67
2023/09/08 08:34:41;;;;;;;12.48;5.45;;;;;;;;;;5053044;28;20017;-68
2023/09/08 08:37:06;;;;;;;9.52;5.30;;;;;;;;;;5051515;28;20128;-66
2023/09/08 08:39:31;;;;;;;9.75;5.32;;;;;;;;;;5039697;28;20021;-68
2023/09/08 08:41:57;;;;;;;12.43;5.68;;;;;;;;;;5051466;28;20082;-67
2023/09/08 08:44:23;;;;;;;10.93;5.55;;;;;;;;;;5052028;28;20021;-67
2023/09/08 08:46:48;;;;;;;14.07;5.60;;;;;;;;;;5052602;28;20028;-65
2023/09/08 08:49:15;;;;;;;11.05;5.05;;;;;;;;;;5054696;28;20553;-68
2023/09/08 08:51:42;;;;;;;11.95;4.88;;;;;;;;;;5056258;28;20020;-67
2023/09/08 08:54:07;;;;;;;11.10;4.72;;;;;;;;;;5052291;28;20051;-67
2023/09/08 08:56:35;;;;;;;9.90;5.15;;;;;;;;;;5052973;28;20072;-69
2023/09/08 08:59:01;;;;;;;20.45;5.22;;;;;;;;;;5054491;28;20040;-67
2023/09/08 09:01:28;;;;;;;12.88;5.15;;;;;;;;;;5052304;28;20486;-65
2023/09/08 09:03:53;;;;;;;10.80;5.18;;;;;;;;;;5051691;28;20032;-67
2023/09/08 09:06:18;;;;;;;9.95;5.20;;;;;;;;;;5051513;28;20391;-68
2023/09/08 09:08:44;;;;;;;11.57;5.13;;;;;;;;;;5051581;28;20021;-67
2023/09/08 09:11:10;;;;;;;11.95;5.05;;;;;;;;;;5052054;28;20100;-66
2023/09/08 09:13:35;;;;;;;10.27;4.93;;;;;;;;;;5052464;28;20366;-66
2023/09/08 09:16:03;;;;;;;11.05;4.90;;;;;;;;;;5051443;28;20457;-66
2023/09/08 09:18:30;;;;;;;12.27;4.60;;;;;;;;;;5051894;28;20119;-66
2023/09/08 09:20:55;;;;;;;11.13;4.78;;;;;;;;;;5050644;28;20025;-66
2023/09/08 09:23:31;;;;;;;13.13;4.53;;;;;;;;;;5051673;28;20098;-68
2023/09/08 09:25:56;;;;;;;8.68;4.75;;;;;;;;;;5050385;28;20593;-66
2023/09/08 09:28:21;;;;;;;9.25;4.63;;;;;;;;;;5051337;28;20056;-67
2023/09/08 09:30:48;;;;;;;8.23;4.70;;;;;;;;;;5046902;28;20043;-65
2023/09/08 09:33:13;;;;;;;9.55;4.93;;;;;;;;;;5051719;28;20044;-69
2023/09/08 09:35:39;;;;;;;12.82;4.85;;;;;;;;;;5049658;28;20072;-67
2023/09/08 09:38:04;;;;;;;9.50;4.28;;;;;;;;;;5046135;28;20087;-66
2023/09/08 09:40:31;;;;;;;11.60;4.93;;;;;;;;;;5041122;28;20024;-67
2023/09/08 09:42:57;;;;;;;10.25;5.40;;;;;;;;;;5051559;28;20311;-67
2023/09/08 09:45:24;;;;;;;13.52;5.20;;;;;;;;;;5051520;28;20477;-66
2023/09/08 09:47:50;;;;;;;8.57;4.43;;;;;;;;;;5049689;28;20236;-67
2023/09/08 09:50:26;;;;;;;14.15;5.05;;;;;;;;;;5051483;28;20081;-66
2023/09/08 09:52:54;;;;;;;10.55;5.20;;;;;;;;;;5050788;28;20417;-67
2023/09/08 09:55:20;;;;;;;15.98;4.80;;;;;;;;;;5050288;28;20044;-64
2023/09/08 09:57:46;;;;;;;8.77;4.60;;;;;;;;;;5051052;28;20056;-67
2023/09/08 10:00:11;;;;;;;14.93;4.80;;;;;;;;;;5051737;28;20080;-67
2023/09/08 10:02:37;;;;;;;10.02;4.25;;;;;;;;;;5051627;28;20465;-68
2023/09/08 10:05:10;;;;;;;10.32;4.60;;;;;;;;;;5051394;28;20031;-68
2023/09/08 10:07:35;;;;;;;10.27;3.92;;;;;;;;;;5051410;28;20021;-66
2023/09/08 10:10:00;;;;;;;11.88;4.28;;;;;;;;;;5051174;28;20024;-66
2023/09/08 10:12:31;;;;;;;16.75;4.70;;;;;;;;;;5050291;28;20422;-67
2023/09/08 10:14:57;;;;;;;7.07;3.60;;;;;;;;;;5051223;28;20009;-68
2023/09/08 10:17:28;;;;;;;9.50;4.20;;;;;;;;;;5051425;28;20074;-66
2023/09/08 10:19:54;;;;;;;6.53;3.40;;;;;;;;;;5051472;28;20014;-68
2023/09/08 10:22:21;;;;;;;8.85;4.30;;;;;;;;;;5051689;28;20544;-66
2023/09/08 10:24:47;;;;;;;10.65;4.00;;;;;;;;;;5045949;28;20041;-67
2023/09/08 10:27:12;;;;;;;9.30;3.90;;;;;;;;;;5046899;28;20025;-67
2023/09/08 10:29:38;;;;;;;11.50;4.03;;;;;;;;;;5052682;28;20485;-68
2023/09/08 10:32:04;;;;;;;11.30;4.47;;;;;;;;;;5052236;28;20978;-68
2023/09/08 10:34:30;;;;;;;8.32;4.22;;;;;;;;;;5051793;28;20525;-65
2023/09/08 10:36:55;;;;;;;8.27;3.63;;;;;;;;;;5050501;28;20013;-67
2023/09/08 10:39:31;;;;;;;16.58;3.78;;;;;;;;;;5043565;28;20035;-67
2023/09/08 10:42:15;;;;;;;12.48;3.60;;;;;;;;;;5047828;28;20037;-67
2023/09/08 10:44:40;;;;;;;10.27;3.60;;;;;;;;;;5050621;28;20441;-69
2023/09/08 10:47:06;;;;;;;9.60;4.23;;;;;;;;;;5044696;28;20552;-66
2023/09/08 10:49:35;;;;;;;13.32;3.78;;;;;;;;;;5040935;28;20327;-66
2023/09/08 10:52:10;;;;;;;7.10;3.53;;;;;;;;;;5049552;28;20021;-67
2023/09/08 10:54:41;;;;;;;8.00;3.47;;;;;;;;;;5051200;28;20013;-67
2023/09/08 10:57:12;;;;;;;9.80;3.60;;;;;;;;;;5052581;28;20363;-67
2023/09/08 10:59:38;;;;;;;6.13;3.22;;;;;;;;;;5050868;28;20036;-66
2023/09/08 11:02:04;;;;;;;10.73;3.58;;;;;;;;;;5044967;28;20022;-68
2023/09/08 11:04:29;;;;;;;7.10;3.60;;;;;;;;;;5045673;28;20028;-69
2023/09/08 11:06:56;;;;;;;9.82;3.78;;;;;;;;;;5049817;28;20075;-67
2023/09/08 11:09:23;;;;;;;8.43;4.05;;;;;;;;;;5050530;28;20023;-67
2023/09/08 11:11:49;;;;;;;7.93;3.90;;;;;;;;;;5045093;28;20116;-68
2023/09/08 11:14:15;;;;;;;13.80;3.83;;;;;;;;;;5045415;28;20355;-67
2023/09/08 11:16:40;;;;;;;7.47;3.67;;;;;;;;;;5047992;28;20032;-68
2023/09/08 11:19:05;;;;;;;7.03;3.30;;;;;;;;;;5049293;28;20053;-65
2023/09/08 11:21:34;;;;;;;6.55;3.20;;;;;;;;;;5050015;28;20017;-68
2023/09/08 11:24:00;;;;;;;10.75;3.30;;;;;;;;;;5045407;28;20044;-66
2023/09/08 11:26:26;;;;;;;8.95;4.32;;;;;;;;;;5048006;28;20477;-64
2023/09/08 11:28:53;;;;;;;9.57;3.65;;;;;;;;;;5046438;28;20196;-66
2023/09/08 11:31:18;;;;;;;9.13;4.32;;;;;;;;;;5044810;28;20029;-67
2023/09/08 11:33:43;;;;;;;15.82;4.13;;;;;;;;;;5048627;28;20020;-67
2023/09/08 11:36:14;;;;;;;9.52;4.20;;;;;;;;;;5049539;28;20029;-66
2023/09/08 11:38:40;;;;;;;12.95;3.63;;;;;;;;;;5042573;28;20036;-65
2023/09/08 11:41:06;;;;;;;10.68;4.38;;;;;;;;;;5046556;28;20111;-66
2023/09/08 11:43:33;;;;;;;14.52;3.72;;;;;;;;;;5049086;28;20112;-68
2023/09/08 11:45:59;;;;;;;8.88;3.78;;;;;;;;;;5049938;28;20056;-67
2023/09/08 11:48:24;;;;;;;9.38;4.18;;;;;;;;;;5049894;28;20021;-67
2023/09/08 11:50:52;;;;;;;7.88;3.45;;;;;;;;;;5049396;28;20029;-65
2023/09/08 11:53:21;;;;;;;6.30;3.35;;;;;;;;;;5049105;28;20050;-66
2023/09/08 11:55:47;;;;;;;17.17;3.80;;;;;;;;;;5049575;28;20082;-65
2023/09/08 11:58:12;;;;;;;9.23;4.00;;;;;;;;;;5048965;28;20448;-67
2023/09/08 12:00:39;;;;;;;7.68;3.75;;;;;;;;;;5049573;28;20024;-68
2023/09/08 12:03:15;;;;;;;9.07;3.63;;;;;;;;;;5049738;28;20029;-68
2023/09/08 12:05:40;;;;;;;9.02;3.40;;;;;;;;;;5049884;28;20090;-65
2023/09/08 12:08:06;;;;;;;11.50;3.65;;;;;;;;;;5050545;28;20364;-69
2023/09/08 12:10:37;;;;;;;13.32;3.75;;;;;;;;;;5049975;28;20021;-66
2023/09/08 12:13:02;;;;;;;9.00;4.68;;;;;;;;;;5050596;28;20148;-67
2023/09/08 12:15:32;;;;;;;7.25;3.20;;;;;;;;;;5050577;28;20103;-67
2023/09/08 12:17:58;;;;;;;16.20;4.25;;;;;;;;;;5049308;28;20028;-67
2023/09/08 12:20:23;;;;;;;8.68;3.70;;;;;;;;;;5049084;28;20020;-67
2023/09/08 12:22:50;;;;;;;11.60;3.60;;;;;;;;;;5049807;28;20017;-68
2023/09/08 12:25:15;;;;;;;7.97;3.10;;;;;;;;;;5049584;28;20032;-67
2023/09/08 12:27:41;;;;;;;7.38;3.92;;;;;;;;;;5048490;28;20017;-66
2023/09/08 12:30:08;;;;;;;8.32;3.65;;;;;;;;;;5038123;28;20406;-68
2023/09/08 12:32:33;;;;;;;6.47;3.25;;;;;;;;;;5049371;28;20160;-68
2023/09/08 12:35:01;;;;;;;12.00;4.60;;;;;;;;;;5049226;28;20021;-67
2023/09/08 12:37:32;;;;;;;7.28;3.35;;;;;;;;;;5042864;28;20025;-68
2023/09/08 12:39:58;;;;;;;17.17;3.65;;;;;;;;;;5045562;28;20021;-67
2023/09/08 12:42:28;;;;;;;7.45;3.88;;;;;;;;;;5047815;23;20071;-71
2023/09/08 12:44:53;;;;;;;8.60;3.55;;;;;;;;;;5028329;28;20074;-69
2023/09/08 12:47:19;;;;;;;10.52;3.90;;;;;;;;;;5027184;28;20427;-72
2023/09/08 12:49:44;;;;;;;10.13;4.10;;;;;;;;;;5029208;28;20029;-72
2023/09/08 12:52:09;;;;;;;7.63;3.78;;;;;;;;;;5032747;28;20433;-73
2023/09/08 12:54:35;;;;;;;7.70;3.90;;;;;;;;;;5032307;28;20630;-73
2023/09/08 12:57:01;;;;;;;8.50;4.15;;;;;;;;;;5032211;28;20091;-71
2023/09/08 12:59:26;;;;;;;10.27;4.30;;;;;;;;;;5031807;28;20084;-73
2023/09/08 13:01:52;;;;;;;7.78;3.70;;;;;;;;;;5032841;28;20164;-72
2023/09/08 13:04:18;;;;;;;9.13;3.63;;;;;;;;;;5031402;28;20099;-74
2023/09/08 13:06:44;;;;;;;7.25;3.85;;;;;;;;;;5031207;28;20070;-72
2023/09/08 13:09:09;;;;;;;7.97;3.40;;;;;;;;;;5031538;28;20022;-73
2023/09/08 13:11:34;;;;;;;9.73;3.83;;;;;;;;;;5031406;28;20021;-71
2023/09/08 13:13:59;;;;;;;6.22;3.13;;;;;;;;;;5032227;28;20052;-70
2023/09/08 13:16:25;;;;;;;13.40;4.15;;;;;;;;;;5031074;28;20493;-72
2023/09/08 13:18:51;;;;;;;8.35;3.50;;;;;;;;;;5030711;28;20121;-69
2023/09/08 13:21:16;;;;;;;7.50;3.72;;;;;;;;;;5030861;28;20021;-73
2023/09/08 13:23:41;;;;;;;7.22;3.45;;;;;;;;;;5031010;28;20492;-71
2023/09/08 13:26:07;;;;;;;13.95;4.40;;;;;;;;;;5029367;28;20028;-72
2023/09/08 13:28:32;;;;;;;10.10;6.00;;;;;;;;;;5025179;28;20021;-70
2023/09/08 13:30:57;;;;;;;10.10;3.42;;;;;;;;;;5017656;28;20282;-71
2023/09/08 13:33:22;;;;;;;6.87;3.30;;;;;;;;;;5030056;28;20601;-72
2023/09/08 13:35:48;;;;;;;9.18;3.92;;;;;;;;;;5029166;28;20243;-73
2023/09/08 13:38:13;;;;;;;8.70;3.37;;;;;;;;;;5024824;28;20014;-73
2023/09/08 13:40:41;;;;;;;12.17;3.50;;;;;;;;;;5019260;28;20251;-71
2023/09/08 13:43:06;;;;;;;6.80;3.58;;;;;;;;;;5029274;28;20267;-73
2023/09/08 13:45:31;;;;;;;10.88;3.28;;;;;;;;;;5031292;28;20032;-70
2023/09/08 13:47:57;;;;;;;7.20;3.53;;;;;;;;;;5030502;28;20053;-73
2023/09/08 13:50:23;;;;;;;9.95;3.33;;;;;;;;;;5030797;28;20032;-72
2023/09/08 13:52:48;;;;;;;10.10;3.53;;;;;;;;;;5031461;28;20022;-70
2023/09/08 13:55:14;;;;;;;9.63;3.73;;;;;;;;;;5030743;28;20009;-72
2023/09/08 13:57:39;;;;;;;17.27;3.22;;;;;;;;;;5030078;28;20263;-71
2023/09/08 14:00:05;;;;;;;9.50;3.80;;;;;;;;;;5028407;28;20422;-71
2023/09/08 14:02:30;;;;;;;7.03;3.65;;;;;;;;;;5029780;28;20037;-71
2023/09/08 14:04:55;;;;;;;7.93;3.55;;;;;;;;;;5029433;28;20033;-72
2023/09/08 14:07:20;;;;;;;7.87;3.07;;;;;;;;;;5029279;28;20236;-71
2023/09/08 14:09:46;;;;;;;7.97;3.47;;;;;;;;;;5028455;28;20655;-72
2023/09/08 14:12:11;;;;;;;8.17;3.13;;;;;;;;;;5030321;28;20357;-69
2023/09/08 14:14:36;;;;;;;11.20;3.70;;;;;;;;;;5029799;28;20301;-73
2023/09/08 14:17:01;;;;;;;7.17;3.80;;;;;;;;;;5029789;28;20243;-72
2023/09/08 14:19:27;;;;;;;7.73;3.43;;;;;;;;;;5029974;28;20259;-72
2023/09/08 14:21:52;;;;;;;8.15;3.90;;;;;;;;;;5012005;28;20346;-73
2023/09/08 14:24:17;;;;;;;5.95;2.90;;;;;;;;;;5030131;28;20025;-70
2023/09/08 14:26:42;;;;;;;7.03;3.27;;;;;;;;;;5029474;28;20025;-73